createdAt,value
2022-09-26T00:01:50.170Z,95.91
2022-09-26T00:05:13.694Z,95.75
2022-09-26T00:08:32.332Z,95.49
2022-09-26T00:11:42.950Z,95.06
2022-09-26T00:15:08.498Z,94.97
2022-09-26T00:18:18.612Z,95.00
2022-09-26T00:21:30.466Z,94.73
2022-09-26T00:24:40.682Z,94.42
2022-09-26T00:31:37.420Z,93.47
2022-09-26T00:34:35.862Z,92.99
2022-09-26T00:37:45.922Z,92.49
2022-09-26T00:40:38.984Z,92.10
2022-09-26T00:43:49.135Z,91.69
2022-09-26T00:47:20.322Z,91.47
2022-09-26T00:50:09.250Z,91.05
2022-09-26T00:53:14.460Z,90.72
2022-09-26T00:56:27.384Z,90.14
2022-09-26T00:59:40.227Z,89.43
2022-09-26T01:02:47.043Z,88.78
2022-09-26T01:06:16.442Z,87.76
2022-09-26T01:09:28.532Z,87.36
2022-09-26T01:12:39.083Z,86.77
2022-09-26T01:15:31.931Z,86.20
2022-09-26T01:18:43.168Z,85.30
2022-09-26T01:26:08.183Z,84.17
2022-09-26T01:29:55.215Z,83.40
2022-09-26T01:33:22.317Z,82.14
2022-09-26T01:36:38.648Z,82.28
2022-09-26T01:39:56.093Z,81.86
2022-09-26T01:43:13.099Z,81.97
2022-09-26T01:46:31.147Z,81.36
2022-09-26T01:49:20.380Z,81.02
2022-09-26T01:52:34.411Z,80.61
2022-09-26T01:55:39.904Z,80.52
2022-09-26T01:58:52.931Z,80.17
2022-09-26T02:01:53.279Z,79.66
2022-09-26T02:05:17.891Z,79.73
2022-09-26T02:08:44.065Z,79.37
2022-09-26T02:15:59.250Z,79.42
2022-09-26T02:19:11.592Z,79.30
2022-09-26T02:22:38.997Z,79.01
2022-09-26T02:25:49.274Z,78.79
2022-09-26T02:29:17.728Z,78.47
2022-09-26T02:32:29.014Z,78.57
2022-09-26T02:35:46.438Z,78.71
2022-09-26T02:43:01.515Z,79.23
2022-09-26T02:46:40.882Z,79.28
2022-09-26T02:49:57.860Z,79.44
2022-09-26T02:53:12.190Z,79.46
2022-09-26T02:56:16.622Z,79.52
2022-09-26T02:59:35.328Z,79.50
2022-09-26T03:02:34.151Z,79.42
2022-09-26T03:09:12.926Z,79.13
2022-09-26T03:12:07.369Z,79.18
2022-09-26T03:15:39.677Z,79.05
2022-09-26T03:19:04.991Z,78.98
2022-09-26T03:22:52.127Z,78.97
2022-09-26T03:34:07.309Z,78.45
2022-09-26T03:37:35.211Z,78.07
2022-09-26T03:40:46.677Z,77.57
2022-09-26T03:43:55.113Z,77.05
2022-09-26T03:47:05.697Z,76.90
2022-09-26T03:54:14.249Z,77.06
2022-09-26T03:57:19.019Z,77.07
2022-09-26T04:00:29.203Z,77.06
2022-09-26T04:07:40.529Z,76.41
2022-09-26T04:14:35.143Z,75.10
2022-09-26T04:17:59.525Z,74.44
2022-09-26T04:21:12.785Z,74.24
2022-09-26T04:24:22.884Z,73.87
2022-09-26T04:31:35.814Z,73.49
2022-09-26T04:35:05.200Z,73.14
2022-09-26T04:42:18.063Z,73.33
2022-09-26T04:49:29.403Z,73.48
2022-09-26T04:56:32.377Z,72.43
2022-09-26T04:59:43.001Z,72.17
2022-09-26T05:02:53.113Z,72.16
2022-09-26T05:10:04.514Z,72.11
2022-09-26T05:17:15.140Z,71.90
2022-09-26T05:20:29.530Z,71.90
2022-09-26T05:23:58.109Z,71.85
2022-09-26T05:27:08.902Z,71.87
2022-09-26T05:34:42.699Z,72.35
2022-09-26T05:38:00.519Z,72.32
2022-09-26T05:45:16.013Z,72.70
2022-09-26T05:48:42.895Z,72.74
2022-09-26T05:55:49.832Z,72.37
2022-09-26T05:59:05.695Z,72.55
2022-09-26T06:02:18.484Z,72.50
2022-09-26T06:09:35.653Z,72.35
2022-09-26T06:12:50.699Z,72.37
2022-09-26T06:15:43.523Z,72.22
2022-09-26T06:19:11.092Z,72.29
2022-09-26T06:26:37.872Z,72.59
2022-09-26T06:29:27.941Z,72.60
2022-09-26T06:32:39.471Z,72.43
2022-09-26T06:35:55.101Z,72.25
2022-09-26T06:47:13.426Z,72.73
2022-09-26T06:50:24.115Z,72.91
2022-09-26T06:54:20.192Z,72.98
2022-09-26T06:57:40.245Z,73.33
2022-09-26T07:00:36.812Z,73.51
2022-09-26T07:03:29.815Z,73.71
2022-09-26T07:10:41.211Z,74.18
2022-09-26T07:13:53.255Z,74.26
2022-09-26T07:17:03.326Z,74.42
2022-09-26T07:20:25.261Z,74.56
2022-09-26T07:23:38.257Z,74.58
2022-09-26T07:26:39.053Z,74.59
2022-09-26T07:29:32.982Z,74.01
2022-09-26T07:32:47.957Z,73.25
2022-09-26T07:35:57.739Z,72.84
2022-09-26T07:38:53.750Z,71.61
2022-09-26T07:41:46.901Z,68.30
2022-09-26T07:47:35.873Z,63.54
2022-09-26T07:50:15.287Z,62.16
2022-09-26T07:53:09.548Z,60.02
2022-09-26T07:56:10.656Z,58.35
2022-09-26T07:58:59.302Z,56.33
2022-09-26T08:01:47.586Z,54.45
2022-09-26T08:04:38.112Z,50.97
2022-09-26T08:07:08.771Z,50.39
2022-09-26T08:09:43.108Z,49.22
2022-09-26T08:12:37.680Z,48.29
2022-09-26T08:15:28.200Z,45.72
2022-09-26T08:18:07.243Z,45.98
2022-09-26T08:22:46.881Z,44.33
2022-09-26T08:25:30.240Z,43.95
2022-09-26T08:28:13.793Z,44.63
2022-09-26T08:30:44.465Z,44.33
2022-09-26T08:33:12.864Z,43.45
2022-09-26T08:35:40.925Z,43.39
2022-09-26T08:38:36.041Z,42.66
2022-09-26T08:41:34.815Z,42.10
2022-09-26T08:44:31.484Z,41.50
2022-09-26T08:47:23.123Z,39.64
2022-09-26T08:50:21.283Z,39.58
2022-09-26T08:52:51.461Z,37.82
2022-09-26T08:55:21.219Z,37.90
2022-09-26T08:57:52.551Z,36.72
2022-09-26T09:00:22.003Z,34.65
2022-09-26T09:03:37.125Z,34.55
2022-09-26T09:06:25.382Z,35.03
2022-09-26T09:08:55.946Z,33.93
2022-09-26T09:11:51.198Z,33.07
2022-09-26T09:14:40.489Z,33.19
2022-09-26T09:17:35.665Z,33.05
2022-09-26T09:20:28.526Z,32.96
2022-09-26T09:23:28.089Z,32.36
2022-09-26T09:29:49.412Z,31.41
2022-09-26T09:32:44.719Z,30.18
2022-09-26T09:35:25.513Z,29.01
2022-09-26T09:38:15.396Z,28.47
2022-09-26T09:41:08.159Z,28.88
2022-09-26T09:43:39.602Z,28.25
2022-09-26T09:46:14.867Z,28.71
2022-09-26T09:48:43.561Z,29.76
2022-09-26T09:51:27.332Z,30.33
2022-09-26T09:54:07.661Z,31.13
2022-09-26T09:56:40.295Z,31.15
2022-09-26T09:59:19.503Z,30.47
2022-09-26T10:02:12.592Z,30.11
2022-09-26T10:04:46.239Z,28.90
2022-09-26T10:07:18.503Z,28.47
2022-09-26T10:10:00.707Z,27.39
2022-09-26T10:12:56.748Z,27.92
2022-09-26T10:15:30.653Z,29.89
2022-09-26T10:18:26.472Z,29.28
2022-09-26T10:21:11.659Z,31.44
2022-09-26T10:23:41.643Z,33.76
2022-09-26T10:26:16.389Z,36.05
2022-09-26T10:28:46.287Z,37.87
2022-09-26T10:31:22.259Z,38.90
2022-09-26T10:34:05.153Z,36.23
2022-09-26T10:36:34.562Z,33.35
2022-09-26T10:39:24.301Z,30.87
2022-09-26T10:41:57.343Z,30.40
2022-09-26T10:44:26.580Z,31.22
2022-09-26T10:47:08.385Z,32.98
2022-09-26T10:49:45.416Z,34.69
2022-09-26T10:52:37.397Z,36.82
2022-09-26T10:55:10.935Z,37.91
2022-09-26T10:57:44.923Z,39.21
2022-09-26T11:00:18.202Z,40.95
2022-09-26T11:02:47.361Z,42.37
2022-09-26T11:05:37.362Z,43.34
2022-09-26T11:08:14.746Z,43.28
2022-09-26T11:11:15.371Z,41.89
2022-09-26T11:14:04.216Z,37.80
2022-09-26T11:16:38.495Z,34.72
2022-09-26T11:19:10.593Z,32.94
2022-09-26T11:21:42.477Z,32.49
2022-09-26T11:24:15.880Z,34.26
2022-09-26T11:26:49.450Z,35.52
2022-09-26T11:29:29.219Z,35.82
2022-09-26T11:32:04.925Z,33.39
2022-09-26T11:34:45.451Z,31.90
2022-09-26T11:37:33.103Z,31.94
2022-09-26T11:40:21.424Z,33.46
2022-09-26T11:43:02.095Z,34.52
2022-09-26T11:45:45.215Z,34.51
2022-09-26T11:48:51.152Z,31.86
2022-09-26T11:51:45.855Z,31.10
2022-09-26T11:54:32.135Z,30.34
2022-09-26T11:57:08.213Z,29.41
2022-09-26T11:59:52.734Z,28.62
2022-09-26T12:02:39.471Z,28.81
2022-09-26T12:05:27.056Z,26.99
2022-09-26T12:08:10.828Z,26.56
2022-09-26T12:10:43.423Z,27.46
2022-09-26T12:13:18.592Z,28.16
2022-09-26T12:15:54.531Z,30.34
2022-09-26T12:18:27.007Z,32.21
2022-09-26T12:21:06.115Z,34.29
2022-09-26T12:23:37.235Z,37.09
2022-09-26T12:26:10.769Z,38.57
2022-09-26T12:29:03.163Z,38.58
2022-09-26T12:31:47.829Z,35.76
2022-09-26T12:34:37.254Z,32.09
2022-09-26T12:37:12.555Z,29.30
2022-09-26T12:39:52.080Z,27.74
2022-09-26T12:42:29.075Z,26.77
2022-09-26T12:45:10.815Z,28.20
2022-09-26T12:47:52.450Z,28.90
2022-09-26T12:50:33.450Z,30.12
2022-09-26T12:53:23.456Z,32.43
2022-09-26T12:55:57.136Z,34.42
2022-09-26T12:58:33.629Z,36.18
2022-09-26T13:01:06.014Z,37.92
2022-09-26T13:03:50.886Z,39.54
2022-09-26T13:06:32.725Z,41.24
2022-09-26T13:09:12.322Z,43.52
2022-09-26T13:11:46.968Z,45.87
2022-09-26T13:14:26.842Z,47.40
2022-09-26T13:17:06.004Z,47.68
2022-09-26T13:19:40.986Z,47.67
2022-09-26T13:22:17.723Z,47.50
2022-09-26T13:24:49.650Z,47.58
2022-09-26T13:27:19.887Z,47.03
2022-09-26T13:29:50.954Z,44.40
2022-09-26T13:32:23.604Z,40.66
2022-09-26T13:34:55.042Z,37.00
2022-09-26T13:37:31.114Z,35.90
2022-09-26T13:40:04.934Z,34.56
2022-09-26T13:42:38.141Z,35.73
2022-09-26T13:45:16.395Z,37.70
2022-09-26T13:47:48.717Z,39.54
2022-09-26T13:50:22.713Z,40.74
2022-09-26T13:52:57.588Z,41.37
2022-09-26T13:55:26.024Z,41.98
2022-09-26T13:58:06.841Z,42.88
2022-09-26T14:00:48.510Z,43.28
2022-09-26T14:03:39.569Z,43.49
2022-09-26T14:06:08.541Z,44.12
2022-09-26T14:08:55.108Z,44.17
2022-09-26T14:11:29.358Z,44.43
2022-09-26T14:14:17.488Z,44.90
2022-09-26T14:16:46.084Z,45.59
2022-09-26T14:19:28.686Z,45.86
2022-09-26T14:22:01.933Z,46.11
2022-09-26T14:24:32.941Z,46.63
2022-09-26T14:27:24.368Z,47.03
2022-09-26T14:29:53.066Z,48.01
2022-09-26T14:32:22.847Z,48.67
2022-09-26T14:34:55.660Z,48.82
2022-09-26T14:37:27.338Z,49.43
2022-09-26T14:40:20.812Z,50.43
2022-09-26T14:42:50.965Z,50.59
2022-09-26T14:45:21.492Z,50.82
2022-09-26T14:47:57.331Z,50.97
2022-09-26T14:50:34.958Z,51.18
2022-09-26T14:53:13.390Z,51.25
2022-09-26T14:56:05.994Z,51.22
2022-09-26T14:59:25.853Z,51.19
2022-09-26T15:05:59.584Z,51.52
2022-09-26T15:08:47.892Z,51.74
2022-09-26T15:11:24.122Z,51.78
2022-09-26T15:13:54.758Z,51.75
2022-09-26T15:16:31.891Z,52.07
2022-09-26T15:19:05.416Z,51.96
2022-09-26T15:21:39.766Z,51.91
2022-09-26T15:24:24.451Z,51.90
2022-09-26T15:26:53.116Z,51.64
2022-09-26T15:29:24.252Z,51.94
2022-09-26T15:31:52.634Z,52.02
2022-09-26T15:34:24.329Z,52.69
2022-09-26T15:37:17.092Z,53.27
2022-09-26T15:40:13.368Z,53.61
2022-09-26T15:43:07.416Z,53.85
2022-09-26T15:45:50.066Z,54.14
2022-09-26T15:48:42.643Z,54.29
2022-09-26T15:51:37.027Z,54.32
2022-09-26T15:54:12.200Z,54.64
2022-09-26T15:56:42.665Z,54.99
2022-09-26T15:59:17.926Z,55.33
2022-09-26T16:02:19.569Z,55.70
2022-09-26T16:05:12.647Z,55.83
2022-09-26T16:07:43.141Z,55.97
2022-09-26T16:10:25.751Z,56.10
2022-09-26T16:13:36.340Z,56.27
2022-09-26T16:16:08.909Z,56.24
2022-09-26T16:19:30.285Z,56.42
2022-09-26T16:22:20.215Z,56.49
2022-09-26T16:25:19.050Z,56.78
2022-09-26T16:28:22.242Z,56.58
2022-09-26T16:31:24.329Z,56.84
2022-09-26T16:33:57.281Z,56.78
2022-09-26T16:37:17.959Z,56.77
2022-09-26T16:40:01.715Z,57.12
2022-09-26T16:43:21.604Z,57.26
2022-09-26T16:46:13.208Z,57.54
2022-09-26T16:48:52.720Z,57.84
2022-09-26T16:51:21.493Z,57.72
2022-09-26T16:58:00.741Z,58.30
2022-09-26T17:01:16.904Z,58.54
2022-09-26T17:04:11.639Z,58.82
2022-09-26T17:10:49.232Z,59.06
2022-09-26T17:13:35.827Z,59.18
2022-09-26T17:16:27.498Z,59.64
2022-09-26T17:19:16.881Z,59.51
2022-09-26T17:21:48.664Z,59.73
2022-09-26T17:24:55.511Z,59.73
2022-09-26T17:27:30.014Z,60.02
2022-09-26T17:30:18.375Z,60.09
2022-09-26T17:33:11.317Z,60.11
2022-09-26T17:36:02.579Z,60.39
2022-09-26T17:38:42.761Z,60.46
2022-09-26T17:41:29.212Z,60.72
2022-09-26T17:44:37.123Z,60.78
2022-09-26T17:47:11.408Z,60.93
2022-09-26T17:50:23.350Z,60.99
2022-09-26T17:53:28.634Z,61.30
2022-09-26T17:56:18.050Z,61.43
2022-09-26T17:59:11.371Z,61.54
2022-09-26T18:02:17.224Z,61.77
2022-09-26T18:05:22.062Z,62.00
2022-09-26T18:08:16.867Z,62.12
2022-09-26T18:11:13.715Z,62.26
2022-09-26T18:14:02.883Z,62.38
2022-09-26T18:16:50.836Z,62.37
2022-09-26T18:19:38.655Z,62.53
2022-09-26T18:22:35.556Z,62.74
2022-09-26T18:25:33.976Z,62.69
2022-09-26T18:28:23.413Z,62.72
2022-09-26T18:31:23.108Z,62.62
2022-09-26T18:34:31.495Z,62.55
2022-09-26T18:37:39.791Z,62.80
2022-09-26T18:40:39.968Z,62.74
2022-09-26T18:43:41.748Z,62.67
2022-09-26T18:46:48.593Z,62.82
2022-09-26T18:49:57.709Z,62.57
2022-09-26T18:52:48.404Z,62.52
2022-09-26T18:56:08.619Z,62.57
2022-09-26T18:58:51.306Z,62.59
2022-09-26T19:01:42.283Z,62.40
2022-09-26T19:04:39.595Z,62.51
2022-09-26T19:07:37.545Z,62.69
2022-09-26T19:10:35.746Z,62.72
2022-09-26T19:13:46.011Z,62.92
2022-09-26T19:16:29.414Z,63.03
2022-09-26T19:19:38.050Z,63.13
2022-09-26T19:22:47.342Z,63.29
2022-09-26T19:26:01.662Z,63.10
2022-09-26T19:28:53.884Z,63.11
2022-09-26T19:31:42.684Z,63.26
2022-09-26T19:34:54.265Z,63.28
2022-09-26T19:37:44.926Z,63.49
2022-09-26T19:41:10.240Z,63.63
2022-09-26T19:44:19.430Z,63.85
2022-09-26T19:47:33.379Z,63.64
2022-09-26T19:50:43.570Z,63.80
2022-09-26T19:53:51.760Z,64.22
2022-09-26T19:56:59.846Z,64.39
2022-09-26T20:00:10.702Z,64.63
2022-09-26T20:03:19.927Z,64.94
2022-09-26T20:06:20.688Z,65.44
2022-09-26T20:09:31.750Z,65.75
2022-09-26T20:12:23.124Z,65.88
2022-09-26T20:15:16.483Z,66.37
2022-09-26T20:18:15.396Z,66.61
2022-09-26T20:21:13.252Z,66.99
2022-09-26T20:24:06.845Z,67.05
2022-09-26T20:27:17.763Z,67.56
2022-09-26T20:30:46.526Z,67.80
2022-09-26T20:33:48.115Z,67.90
2022-09-26T20:41:18.985Z,68.27
2022-09-26T20:48:29.120Z,68.47
2022-09-26T20:51:37.432Z,68.26
2022-09-26T20:54:28.971Z,68.15
2022-09-26T20:57:53.112Z,68.21
2022-09-26T21:01:10.906Z,68.27
2022-09-26T21:04:19.076Z,68.43
2022-09-26T21:07:58.237Z,68.58
2022-09-26T21:11:22.526Z,68.94
2022-09-26T21:15:11.316Z,69.16
2022-09-26T21:18:24.005Z,69.66
2022-09-26T21:21:33.179Z,70.02
2022-09-26T21:24:29.303Z,70.23
2022-09-26T21:27:37.505Z,70.60
2022-09-26T21:34:56.151Z,71.12
2022-09-26T21:38:04.367Z,71.23
2022-09-26T21:41:12.915Z,71.33
2022-09-26T21:44:26.825Z,71.61
2022-09-26T21:47:54.637Z,71.78
2022-09-26T21:50:47.466Z,71.76
2022-09-26T21:53:53.303Z,71.81
2022-09-26T22:05:17.804Z,71.98
2022-09-26T22:08:33.871Z,71.92
2022-09-26T22:11:44.143Z,71.85
2022-09-26T22:14:50.946Z,71.97
2022-09-26T22:18:15.300Z,71.98
2022-09-26T22:21:23.462Z,72.01
2022-09-26T22:24:32.787Z,72.00
2022-09-26T22:27:56.977Z,72.05
2022-09-26T22:35:07.188Z,72.17
2022-09-26T22:42:16.952Z,72.52
2022-09-26T22:46:03.702Z,72.72
2022-09-26T22:49:24.348Z,72.92
2022-09-26T22:52:47.059Z,73.07
2022-09-26T22:59:48.696Z,73.23
2022-09-26T23:03:36.454Z,73.23
2022-09-26T23:06:44.507Z,73.52
2022-09-26T23:13:59.116Z,73.96
2022-09-26T23:17:28.519Z,74.23
2022-09-26T23:24:38.083Z,74.88
2022-09-26T23:27:46.372Z,75.12
2022-09-26T23:30:54.519Z,75.50
2022-09-26T23:34:04.533Z,75.59
2022-09-26T23:36:57.349Z,75.93
2022-09-26T23:40:07.213Z,75.94
2022-09-26T23:42:57.770Z,76.00
2022-09-26T23:46:06.880Z,76.12
2022-09-26T23:48:57.868Z,76.16
2022-09-26T23:52:07.041Z,76.39
2022-09-26T23:55:16.329Z,76.27
2022-09-26T23:58:24.547Z,76.26
